createdAt,value
2023-05-21T00:02:00.115Z,17.80
2023-05-21T00:04:29.874Z,17.80
2023-05-21T00:06:57.155Z,17.80
2023-05-21T00:09:24.540Z,17.80
2023-05-21T00:11:51.608Z,17.70
2023-05-21T00:14:18.777Z,17.70
2023-05-21T00:16:47.141Z,17.60
2023-05-21T00:19:14.493Z,17.60
2023-05-21T00:21:41.599Z,17.60
2023-05-21T00:24:08.824Z,17.60
2023-05-21T00:26:35.937Z,17.60
2023-05-21T00:29:03.332Z,17.60
2023-05-21T00:31:32.272Z,17.60
2023-05-21T00:33:59.819Z,17.60
2023-05-21T00:36:26.943Z,17.60
2023-05-21T00:38:54.079Z,17.60
2023-05-21T00:41:23.540Z,17.60
2023-05-21T00:43:51.076Z,17.50
2023-05-21T00:46:21.014Z,17.50
2023-05-21T00:48:50.509Z,17.50
2023-05-21T00:51:18.854Z,17.60
2023-05-21T00:53:46.724Z,17.50
2023-05-21T00:56:14.186Z,17.50
2023-05-21T00:58:41.767Z,17.40
2023-05-21T01:01:13.869Z,17.50
2023-05-21T01:03:41.505Z,17.50
2023-05-21T01:06:09.882Z,17.30
2023-05-21T01:08:38.337Z,17.40
2023-05-21T01:11:07.149Z,17.50
2023-05-21T01:13:37.713Z,17.40
2023-05-21T01:16:06.806Z,17.20
2023-05-21T01:18:38.281Z,17.30
2023-05-21T01:21:07.659Z,17.20
2023-05-21T01:23:35.548Z,17.30
2023-05-21T01:26:02.705Z,17.30
2023-05-21T01:28:30.032Z,17.20
2023-05-21T01:31:03.364Z,17.30
2023-05-21T01:33:41.836Z,17.40
2023-05-21T01:36:40.973Z,17.30
2023-05-21T01:39:12.390Z,17.30
2023-05-21T01:41:45.164Z,17.30
2023-05-21T01:44:13.251Z,17.10
2023-05-21T01:46:40.694Z,17.30
2023-05-21T01:49:08.938Z,17.20
2023-05-21T01:51:36.993Z,17.10
2023-05-21T01:54:04.379Z,17.00
2023-05-21T01:56:34.044Z,16.80
2023-05-21T01:59:01.483Z,16.90
2023-05-21T02:01:30.345Z,17.00
2023-05-21T02:03:58.271Z,16.90
2023-05-21T02:06:25.913Z,17.00
2023-05-21T02:08:52.997Z,17.00
2023-05-21T02:11:20.097Z,17.00
2023-05-21T02:13:48.676Z,16.80
2023-05-21T02:16:16.095Z,16.70
2023-05-21T02:18:43.731Z,16.70
2023-05-21T02:41:05.697Z,16.70
2023-05-21T02:43:32.822Z,16.60
2023-05-21T02:45:59.779Z,16.60
2023-05-21T02:48:28.366Z,16.70
2023-05-21T02:50:55.392Z,16.60
2023-05-21T02:53:22.424Z,16.60
2023-05-21T02:55:49.616Z,16.60
2023-05-21T02:58:17.484Z,16.60
2023-05-21T03:00:44.648Z,16.60
2023-05-21T03:03:12.911Z,16.70
2023-05-21T03:05:39.995Z,16.60
2023-05-21T03:08:07.120Z,16.50
2023-05-21T03:10:34.058Z,16.50
2023-05-21T03:13:05.086Z,16.50
2023-05-21T03:15:33.524Z,16.50
2023-05-21T03:18:00.615Z,16.50
2023-05-21T03:20:28.949Z,16.60
2023-05-21T03:22:56.000Z,16.40
2023-05-21T03:25:25.337Z,16.30
2023-05-21T03:27:53.948Z,16.30
2023-05-21T03:30:59.821Z,16.30
2023-05-21T03:33:42.616Z,16.40
2023-05-21T03:36:23.585Z,16.50
2023-05-21T03:38:50.692Z,16.40
2023-05-21T03:41:18.740Z,16.30
2023-05-21T03:43:50.340Z,16.30
2023-05-21T03:46:19.130Z,16.30
2023-05-21T03:49:15.436Z,16.50
2023-05-21T03:51:42.763Z,16.40
2023-05-21T03:54:13.321Z,16.30
2023-05-21T03:56:40.636Z,16.30
2023-05-21T03:59:07.696Z,16.40
2023-05-21T04:01:36.278Z,16.30
2023-05-21T04:04:03.541Z,16.10
2023-05-21T04:06:30.951Z,16.10
2023-05-21T04:08:58.435Z,16.10
2023-05-21T04:11:26.236Z,16.00
2023-05-21T04:13:53.290Z,16.00
2023-05-21T04:16:20.292Z,16.20
2023-05-21T04:18:47.559Z,15.90
2023-05-21T04:21:16.351Z,16.10
2023-05-21T04:23:44.422Z,16.20
2023-05-21T04:26:22.850Z,16.40
2023-05-21T04:28:50.509Z,16.50
2023-05-21T04:31:17.504Z,16.50
2023-05-21T04:33:46.012Z,16.50
2023-05-21T04:36:13.483Z,16.50
2023-05-21T04:38:41.903Z,16.50
2023-05-21T04:41:10.930Z,16.50
2023-05-21T04:43:38.358Z,16.50
2023-05-21T04:46:06.113Z,16.50
2023-05-21T04:48:34.416Z,16.50
2023-05-21T04:51:01.689Z,16.40
2023-05-21T04:53:29.257Z,16.30
2023-05-21T04:55:56.363Z,16.20
2023-05-21T04:58:23.534Z,16.30
2023-05-21T05:00:52.062Z,16.30
2023-05-21T05:03:19.227Z,16.40
2023-05-21T05:05:46.752Z,16.50
2023-05-21T05:08:15.740Z,16.50
2023-05-21T05:10:43.545Z,16.50
2023-05-21T05:13:10.599Z,16.40
2023-05-21T05:15:38.210Z,16.50
2023-05-21T05:18:08.671Z,16.50
2023-05-21T05:20:35.985Z,16.50
2023-05-21T05:23:03.070Z,16.50
2023-05-21T05:25:32.169Z,16.50
2023-05-21T05:27:59.694Z,16.60
2023-05-21T05:30:26.891Z,16.60
2023-05-21T05:32:57.455Z,16.70
2023-05-21T05:35:24.689Z,16.60
2023-05-21T05:37:51.665Z,16.70
2023-05-21T05:40:19.223Z,16.70
2023-05-21T05:42:46.579Z,16.70
2023-05-21T05:45:16.115Z,16.70
2023-05-21T05:47:43.298Z,16.80
2023-05-21T05:50:11.051Z,16.90
2023-05-21T05:52:38.197Z,16.90
2023-05-21T05:55:05.771Z,16.90
2023-05-21T05:57:32.800Z,16.90
2023-05-21T06:00:09.258Z,17.00
2023-05-21T06:02:39.415Z,17.00
2023-05-21T06:05:07.302Z,17.10
2023-05-21T06:07:34.418Z,17.10
2023-05-21T06:10:01.442Z,17.10
2023-05-21T06:12:28.824Z,17.10
2023-05-21T06:14:55.890Z,17.20
2023-05-21T06:17:23.114Z,17.20
2023-05-21T06:19:51.379Z,17.20
2023-05-21T06:22:18.776Z,17.30
2023-05-21T06:24:45.895Z,17.30
2023-05-21T06:27:14.411Z,17.30
2023-05-21T06:29:42.150Z,17.40
2023-05-21T06:32:09.313Z,17.30
2023-05-21T06:34:36.658Z,17.40
2023-05-21T06:37:03.800Z,17.50
2023-05-21T06:39:30.899Z,17.50
2023-05-21T06:41:57.916Z,17.60
2023-05-21T06:44:47.388Z,17.50
2023-05-21T06:47:25.866Z,17.50
2023-05-21T06:49:52.981Z,17.50
2023-05-21T06:52:20.029Z,17.60
2023-05-21T06:54:47.220Z,17.60
2023-05-21T06:57:16.353Z,17.70
2023-05-21T06:59:44.123Z,17.70
2023-05-21T07:02:11.493Z,17.80
2023-05-21T07:04:38.798Z,17.90
2023-05-21T07:07:06.058Z,17.90
2023-05-21T07:09:33.469Z,18.00
2023-05-21T07:12:01.363Z,18.10
2023-05-21T07:14:28.579Z,18.10
2023-05-21T07:16:56.223Z,18.20
2023-05-21T07:19:23.299Z,18.20
2023-05-21T07:21:50.383Z,18.20
2023-05-21T07:24:17.403Z,18.30
2023-05-21T07:26:44.610Z,18.40
2023-05-21T07:29:12.422Z,18.40
2023-05-21T07:31:39.547Z,18.50
2023-05-21T07:34:07.384Z,18.40
2023-05-21T07:36:34.380Z,18.50
2023-05-21T07:39:02.024Z,18.60
2023-05-21T07:41:29.551Z,18.70
2023-05-21T07:43:58.397Z,18.80
2023-05-21T07:46:25.548Z,18.80
2023-05-21T07:48:55.657Z,18.90
2023-05-21T07:51:22.854Z,18.90
2023-05-21T07:53:50.260Z,18.90
2023-05-21T07:56:21.192Z,19.00
2023-05-21T07:58:48.686Z,19.10
2023-05-21T08:01:17.302Z,19.00
2023-05-21T08:03:44.605Z,19.20
2023-05-21T08:06:12.064Z,19.20
2023-05-21T08:08:39.094Z,19.30
2023-05-21T08:11:06.215Z,19.30
2023-05-21T08:13:34.640Z,19.40
2023-05-21T08:16:03.727Z,19.50
2023-05-21T08:18:31.144Z,19.60
2023-05-21T08:20:58.735Z,19.60
2023-05-21T08:23:27.205Z,19.70
2023-05-21T08:25:56.317Z,19.70
2023-05-21T08:28:23.697Z,19.70
2023-05-21T08:30:52.076Z,19.80
2023-05-21T08:33:21.060Z,19.70
2023-05-21T08:35:48.909Z,19.80
2023-05-21T08:38:20.631Z,19.80
2023-05-21T08:41:12.656Z,19.90
2023-05-21T08:43:40.007Z,20.00
2023-05-21T08:46:08.422Z,20.00
2023-05-21T08:48:38.778Z,20.10
2023-05-21T08:51:06.427Z,20.10
2023-05-21T08:53:38.745Z,20.20
2023-05-21T08:56:09.456Z,20.40
2023-05-21T08:58:47.345Z,20.60
2023-05-21T09:01:19.533Z,20.70
2023-05-21T09:03:52.590Z,20.70
2023-05-21T09:06:21.449Z,20.80
2023-05-21T09:08:58.727Z,20.80
2023-05-21T09:11:30.642Z,20.80
2023-05-21T09:13:59.529Z,20.80
2023-05-21T09:16:49.004Z,20.90
2023-05-21T09:19:17.267Z,20.90
2023-05-21T09:21:44.332Z,20.90
2023-05-21T09:24:14.925Z,21.00
2023-05-21T09:26:44.291Z,21.00
2023-05-21T09:29:13.739Z,21.00
2023-05-21T09:31:47.769Z,21.00
2023-05-21T09:34:15.186Z,21.00
2023-05-21T09:36:47.098Z,21.00
2023-05-21T09:39:29.344Z,21.10
2023-05-21T09:41:58.284Z,21.10
2023-05-21T09:44:27.123Z,21.10
2023-05-21T09:47:00.990Z,21.20
2023-05-21T09:49:28.410Z,21.30
2023-05-21T09:52:00.632Z,21.60
2023-05-21T09:54:33.510Z,21.70
2023-05-21T09:57:04.129Z,22.00
2023-05-21T09:59:40.470Z,22.20
2023-05-21T10:02:20.305Z,22.50
2023-05-21T10:04:50.191Z,22.50
2023-05-21T10:07:26.259Z,22.60
2023-05-21T10:09:57.575Z,23.00
2023-05-21T10:12:25.743Z,23.20
2023-05-21T10:14:59.819Z,23.40
2023-05-21T10:17:28.444Z,23.60
2023-05-21T10:19:56.827Z,23.60
2023-05-21T10:22:25.619Z,23.60
2023-05-21T10:24:52.923Z,23.90
2023-05-21T10:27:20.579Z,23.80
2023-05-21T10:29:48.968Z,24.00
2023-05-21T10:32:19.221Z,24.10
2023-05-21T10:34:47.735Z,24.20
2023-05-21T10:37:16.864Z,24.20
2023-05-21T10:39:45.979Z,24.60
2023-05-21T10:42:51.923Z,24.90
2023-05-21T10:45:56.057Z,25.00
2023-05-21T10:48:33.017Z,25.10
2023-05-21T10:51:21.195Z,25.20
2023-05-21T10:54:23.136Z,25.60
2023-05-21T10:57:18.230Z,25.70
2023-05-21T10:59:48.970Z,26.10
2023-05-21T11:02:17.858Z,26.40
2023-05-21T11:04:46.002Z,26.60
2023-05-21T11:07:13.377Z,26.60
2023-05-21T11:09:40.429Z,26.50
2023-05-21T11:12:09.828Z,26.80
2023-05-21T11:14:39.663Z,26.80
2023-05-21T11:17:10.524Z,26.20
2023-05-21T11:19:39.998Z,25.80
2023-05-21T11:22:24.416Z,26.30
2023-05-21T11:24:53.172Z,25.70
2023-05-21T11:27:41.272Z,25.10
2023-05-21T11:30:19.564Z,25.30
2023-05-21T11:33:13.966Z,25.80
2023-05-21T11:35:50.403Z,25.70
2023-05-21T11:38:18.084Z,25.60
2023-05-21T11:40:55.237Z,25.20
2023-05-21T11:43:22.544Z,24.90
2023-05-21T11:45:53.003Z,25.00
2023-05-21T11:48:26.879Z,25.90
2023-05-21T11:50:54.800Z,26.40
2023-05-21T11:53:22.100Z,26.00
2023-05-21T11:55:50.778Z,26.00
2023-05-21T11:58:19.755Z,26.30
2023-05-21T12:00:50.656Z,26.60
2023-05-21T12:03:18.261Z,26.40
2023-05-21T12:05:49.562Z,26.10
2023-05-21T12:08:26.007Z,26.40
2023-05-21T12:11:00.080Z,27.10
2023-05-21T12:13:28.082Z,27.50
2023-05-21T12:15:55.110Z,27.70
2023-05-21T12:18:22.276Z,28.00
2023-05-21T12:20:52.073Z,27.70
2023-05-21T12:23:25.995Z,27.80
2023-05-21T12:25:56.344Z,27.30
2023-05-21T12:28:24.630Z,27.50
2023-05-21T12:30:51.808Z,27.40
2023-05-21T12:33:19.414Z,27.40
2023-05-21T12:35:50.036Z,27.60
2023-05-21T12:38:17.287Z,27.80
2023-05-21T12:40:45.575Z,27.30
2023-05-21T12:43:12.815Z,27.60
2023-05-21T12:45:40.204Z,28.00
2023-05-21T12:48:07.405Z,28.00
2023-05-21T12:50:35.817Z,27.50
2023-05-21T12:53:03.374Z,27.80
2023-05-21T12:55:31.633Z,28.30
2023-05-21T12:58:08.149Z,28.50
2023-05-21T13:00:36.264Z,27.50
2023-05-21T13:03:06.263Z,27.10
2023-05-21T13:05:34.077Z,26.70
2023-05-21T13:08:01.319Z,26.50
2023-05-21T13:10:28.290Z,26.30
2023-05-21T13:12:55.387Z,26.60
2023-05-21T13:15:22.391Z,26.50
2023-05-21T13:17:50.690Z,26.40
2023-05-21T13:20:23.810Z,26.20
2023-05-21T13:22:52.015Z,26.50
2023-05-21T13:25:21.532Z,26.40
2023-05-21T13:27:50.180Z,26.00
2023-05-21T13:30:18.084Z,26.10
2023-05-21T13:32:45.903Z,26.60
2023-05-21T13:35:13.358Z,27.30
2023-05-21T13:37:41.026Z,26.80
2023-05-21T13:40:15.006Z,26.40
2023-05-21T13:42:44.448Z,26.40
2023-05-21T13:45:13.604Z,26.50
2023-05-21T13:47:41.447Z,26.60
2023-05-21T13:50:09.734Z,27.00
2023-05-21T13:52:37.283Z,26.70
2023-05-21T13:55:04.919Z,26.50
2023-05-21T13:57:32.210Z,26.40
2023-05-21T14:00:00.231Z,26.40
2023-05-21T14:02:27.541Z,26.60
2023-05-21T14:04:54.676Z,26.70
2023-05-21T14:07:22.366Z,26.80
2023-05-21T14:09:49.798Z,26.80
2023-05-21T14:12:17.128Z,26.80
2023-05-21T14:14:44.516Z,26.50
2023-05-21T14:17:11.594Z,26.30
2023-05-21T14:19:38.692Z,26.30
2023-05-21T14:22:05.828Z,26.30
2023-05-21T14:24:32.941Z,26.30
2023-05-21T14:26:59.981Z,26.40
2023-05-21T14:29:26.959Z,26.60
2023-05-21T14:31:53.947Z,26.70
2023-05-21T14:34:20.960Z,26.70
2023-05-21T14:36:47.999Z,26.50
2023-05-21T14:39:15.033Z,26.20
2023-05-21T14:41:42.074Z,25.70
2023-05-21T14:44:09.057Z,25.50
2023-05-21T14:46:36.820Z,25.40
2023-05-21T14:49:04.096Z,25.10
2023-05-21T14:51:31.705Z,25.00
2023-05-21T14:53:59.328Z,24.80
2023-05-21T14:56:28.239Z,24.50
2023-05-21T14:58:56.464Z,24.00
2023-05-21T15:01:23.789Z,23.60
2023-05-21T15:03:51.289Z,23.60
2023-05-21T15:06:18.660Z,23.50
2023-05-21T15:08:45.696Z,23.40
2023-05-21T15:11:12.718Z,23.20
2023-05-21T15:13:39.828Z,23.20
2023-05-21T15:16:06.904Z,23.10
2023-05-21T15:18:34.191Z,22.70
2023-05-21T15:21:01.438Z,22.40
2023-05-21T15:23:28.577Z,22.60
2023-05-21T15:25:55.741Z,22.80
2023-05-21T15:28:23.207Z,23.00
2023-05-21T15:30:50.464Z,23.10
2023-05-21T15:33:17.657Z,23.00
2023-05-21T15:35:45.232Z,23.30
2023-05-21T15:38:12.458Z,23.40
2023-05-21T15:40:41.964Z,23.60
2023-05-21T15:43:09.069Z,23.90
2023-05-21T15:45:36.307Z,24.20
2023-05-21T15:48:03.661Z,24.30
2023-05-21T15:50:30.665Z,24.50
2023-05-21T15:52:57.657Z,24.70
2023-05-21T15:55:24.682Z,24.60
2023-05-21T15:57:51.705Z,24.70
2023-05-21T16:00:18.720Z,24.90
2023-05-21T16:02:45.875Z,24.80
2023-05-21T16:05:12.851Z,24.80
2023-05-21T16:07:39.908Z,24.50
2023-05-21T16:10:10.121Z,24.40
2023-05-21T16:12:37.137Z,24.50
2023-05-21T16:15:05.692Z,24.40
2023-05-21T16:17:32.781Z,24.30
2023-05-21T16:19:59.849Z,24.20
2023-05-21T16:22:26.956Z,24.10
2023-05-21T16:24:54.675Z,24.10
2023-05-21T16:27:21.690Z,24.10
2023-05-21T16:29:48.725Z,24.20
2023-05-21T16:32:16.073Z,24.40
2023-05-21T16:34:45.777Z,24.40
2023-05-21T16:37:12.765Z,24.40
2023-05-21T16:39:39.752Z,24.40
2023-05-21T16:42:06.816Z,24.20
2023-05-21T16:44:33.792Z,24.10
2023-05-21T16:47:02.023Z,24.00
2023-05-21T16:49:29.042Z,24.00
2023-05-21T16:51:56.201Z,24.00
2023-05-21T16:54:23.315Z,24.10
2023-05-21T16:56:50.307Z,24.00
2023-05-21T16:59:17.419Z,23.90
2023-05-21T17:01:44.425Z,23.90
2023-05-21T17:04:11.796Z,23.80
2023-05-21T17:06:38.799Z,23.70
2023-05-21T17:09:05.821Z,23.70
2023-05-21T17:11:32.978Z,23.80
2023-05-21T17:13:59.908Z,23.80
2023-05-21T17:16:27.167Z,23.90
2023-05-21T17:18:54.190Z,23.90
2023-05-21T17:21:21.416Z,24.00
2023-05-21T17:23:49.557Z,24.00
2023-05-21T17:26:16.662Z,24.10
2023-05-21T17:28:43.918Z,24.00
2023-05-21T17:31:11.132Z,24.00
2023-05-21T17:33:39.116Z,24.00
2023-05-21T17:36:06.254Z,24.00
2023-05-21T17:38:33.654Z,24.00
2023-05-21T17:41:00.782Z,23.90
2023-05-21T17:43:27.956Z,23.80
2023-05-21T17:45:54.918Z,23.70
2023-05-21T17:48:22.072Z,23.60
2023-05-21T17:50:49.250Z,23.50
2023-05-21T17:53:16.705Z,23.50
2023-05-21T17:55:43.969Z,23.40
2023-05-21T17:58:11.052Z,23.30
2023-05-21T18:00:38.368Z,23.20
2023-05-21T18:03:05.749Z,23.20
2023-05-21T18:05:32.805Z,23.10
2023-05-21T18:08:01.513Z,23.00
2023-05-21T18:10:29.756Z,22.90
2023-05-21T18:12:57.003Z,22.90
2023-05-21T18:15:24.043Z,22.80
2023-05-21T18:17:51.145Z,22.70
2023-05-21T18:20:18.653Z,22.70
2023-05-21T18:22:45.760Z,22.70
2023-05-21T18:25:12.813Z,22.60
2023-05-21T18:27:39.773Z,22.50
2023-05-21T18:30:08.250Z,22.50
2023-05-21T18:32:38.595Z,22.40
2023-05-21T18:35:11.480Z,22.40
2023-05-21T18:37:41.608Z,22.30
2023-05-21T18:40:15.405Z,22.20
2023-05-21T18:42:42.553Z,22.10
2023-05-21T18:45:10.437Z,22.20
2023-05-21T18:47:39.147Z,22.10
2023-05-21T18:50:14.261Z,22.10
2023-05-21T18:52:41.783Z,22.00
2023-05-21T18:55:09.415Z,22.00
2023-05-21T18:57:37.883Z,22.00
2023-05-21T19:00:07.137Z,21.90
2023-05-21T19:02:34.237Z,22.00
2023-05-21T19:05:01.869Z,21.90
2023-05-21T19:07:29.502Z,21.80
2023-05-21T19:09:56.604Z,21.80
2023-05-21T19:12:23.640Z,21.70
2023-05-21T19:14:50.773Z,21.70
2023-05-21T19:17:17.762Z,21.60
2023-05-21T19:19:44.831Z,21.50
2023-05-21T19:22:12.060Z,21.60
2023-05-21T19:24:39.297Z,21.50
2023-05-21T19:27:06.458Z,21.40
2023-05-21T19:29:33.630Z,21.30
2023-05-21T19:32:00.812Z,21.30
2023-05-21T19:34:28.004Z,21.20
2023-05-21T19:36:55.161Z,21.10
2023-05-21T19:39:22.126Z,21.20
2023-05-21T19:41:49.336Z,21.10
2023-05-21T19:44:17.340Z,21.10
2023-05-21T19:46:44.455Z,21.10
2023-05-21T19:49:12.709Z,21.00
2023-05-21T19:51:39.962Z,21.00
2023-05-21T19:54:06.995Z,20.90
2023-05-21T19:56:33.991Z,20.90
2023-05-21T19:59:01.029Z,21.00
2023-05-21T20:01:30.365Z,20.90
2023-05-21T20:03:57.719Z,20.80
2023-05-21T20:06:24.844Z,20.90
2023-05-21T20:08:51.900Z,20.80
2023-05-21T20:11:19.345Z,20.80
2023-05-21T20:13:50.216Z,20.80
2023-05-21T20:16:20.443Z,20.90
2023-05-21T20:18:47.924Z,20.80
2023-05-21T20:21:18.566Z,20.70
2023-05-21T20:23:46.123Z,20.70
2023-05-21T20:26:14.464Z,20.70
2023-05-21T20:28:41.501Z,20.70
2023-05-21T20:31:08.624Z,20.60
2023-05-21T20:33:38.708Z,20.70
2023-05-21T20:36:07.768Z,20.70
2023-05-21T20:38:37.199Z,20.60
2023-05-21T20:41:05.193Z,20.40
2023-05-21T20:43:32.950Z,20.50
2023-05-21T20:46:00.097Z,20.50
2023-05-21T20:48:29.180Z,20.50
2023-05-21T20:50:57.586Z,20.50
2023-05-21T20:53:26.041Z,20.50
2023-05-21T20:55:54.781Z,20.40
2023-05-21T20:58:23.970Z,20.40
2023-05-21T21:00:51.165Z,20.30
2023-05-21T21:03:18.710Z,20.20
2023-05-21T21:05:45.899Z,20.20
2023-05-21T21:08:12.940Z,20.20
2023-05-21T21:10:42.356Z,20.30
2023-05-21T21:13:09.475Z,20.30
2023-05-21T21:15:36.538Z,20.20
2023-05-21T21:18:03.779Z,20.30
2023-05-21T21:20:30.869Z,20.20
2023-05-21T21:22:57.899Z,20.10
2023-05-21T21:25:24.973Z,20.10
2023-05-21T21:27:52.023Z,20.00
2023-05-21T21:30:19.092Z,19.90
2023-05-21T21:32:47.618Z,19.90
2023-05-21T21:35:14.770Z,19.80
2023-05-21T21:37:41.704Z,19.90
2023-05-21T21:40:09.431Z,19.90
2023-05-21T21:42:36.479Z,19.80
2023-05-21T21:45:04.769Z,19.80
2023-05-21T21:47:31.918Z,19.70
2023-05-21T21:49:59.224Z,19.70
2023-05-21T21:52:27.570Z,19.70
2023-05-21T21:54:57.816Z,19.50
2023-05-21T21:57:27.503Z,19.50
2023-05-21T21:59:54.482Z,19.50
2023-05-21T22:02:22.025Z,19.50
2023-05-21T22:04:49.057Z,19.50
2023-05-21T22:07:18.272Z,19.50
2023-05-21T22:09:45.888Z,19.50
2023-05-21T22:12:13.558Z,19.40
2023-05-21T22:14:40.562Z,19.40
2023-05-21T22:17:08.606Z,19.30
2023-05-21T22:19:35.956Z,19.20
2023-05-21T22:22:04.203Z,19.20
2023-05-21T22:24:33.127Z,19.30
2023-05-21T22:27:01.308Z,19.30
2023-05-21T22:29:28.244Z,19.30
2023-05-21T22:31:55.525Z,19.20
2023-05-21T22:34:25.199Z,19.20
2023-05-21T22:36:52.320Z,19.20
2023-05-21T22:39:19.354Z,19.20
2023-05-21T22:41:46.613Z,19.20
2023-05-21T22:44:13.582Z,19.10
2023-05-21T22:46:42.216Z,19.10
2023-05-21T22:49:10.326Z,19.10
2023-05-21T22:51:37.838Z,19.00
2023-05-21T22:54:05.190Z,19.00
2023-05-21T22:56:32.244Z,18.90
2023-05-21T22:58:59.712Z,19.00
2023-05-21T23:01:27.106Z,18.90
2023-05-21T23:03:54.075Z,18.90
2023-05-21T23:06:21.223Z,18.90
2023-05-21T23:08:48.202Z,18.80
2023-05-21T23:11:15.326Z,18.90
2023-05-21T23:13:42.284Z,19.00
2023-05-21T23:16:09.332Z,18.80
2023-05-21T23:18:36.370Z,18.90
2023-05-21T23:21:03.614Z,18.80
2023-05-21T23:23:30.885Z,18.70
2023-05-21T23:25:59.054Z,18.80
2023-05-21T23:28:26.514Z,18.70
2023-05-21T23:30:53.613Z,18.70
2023-05-21T23:33:20.719Z,18.80
2023-05-21T23:35:47.827Z,18.70
2023-05-21T23:38:14.798Z,18.80
2023-05-21T23:40:42.274Z,18.80
2023-05-21T23:43:09.299Z,18.50
2023-05-21T23:45:36.418Z,18.60
2023-05-21T23:48:03.831Z,18.40
2023-05-21T23:50:30.884Z,18.70
2023-05-21T23:52:59.078Z,18.60
2023-05-21T23:55:26.082Z,18.60
2023-05-21T23:57:53.116Z,18.60
